Time;durP1;ratioP1;P1;durP2;ratioP2;P2;SDS_P1;SDS_P2;PMS_P1;PMS_P2;Temp;Humidity;BMP_temperature;BMP_pressure;BME280_temperature;BME280_humidity;BME280_pressure;Samples;Min_cycle;Max_cycle;Signal;HPM_P1;HPM_P2
2022/10/20 00:01:34;;;;;;;6.90;5.30;;;14.00;99.90;;;;;;5031414;28;20244;-74
2022/10/20 00:04:00;;;;;;;6.85;4.70;;;14.00;99.90;;;;;;5031261;28;20564;-74
2022/10/20 00:06:30;;;;;;;6.63;5.93;;;14.00;99.90;;;;;;5031835;28;20193;-74
2022/10/20 00:08:58;;;;;;;5.70;4.80;;;14.00;99.90;;;;;;5031432;28;20576;-74
2022/10/20 00:11:25;;;;;;;4.03;3.30;;;14.00;99.90;;;;;;5031203;28;20564;-74
2022/10/20 00:13:53;;;;;;;5.23;4.03;;;14.00;99.90;;;;;;5031095;28;20593;-74
2022/10/20 00:16:20;;;;;;;8.93;4.10;;;14.00;99.90;;;;;;5031572;28;20655;-74
2022/10/20 00:18:46;;;;;;;6.10;4.23;;;14.00;99.90;;;;;;5031594;28;21171;-74
2022/10/20 00:21:16;;;;;;;7.97;4.70;;;13.90;99.90;;;;;;5031567;28;20668;-74
2022/10/20 00:23:43;;;;;;;6.73;5.00;;;13.90;99.90;;;;;;5013421;28;20556;-74
2022/10/20 00:26:14;;;;;;;5.37;4.20;;;13.90;99.90;;;;;;5031006;28;20627;-74
2022/10/20 00:28:39;;;;;;;7.82;4.65;;;13.90;99.90;;;;;;5031142;28;20587;-74
2022/10/20 00:31:06;;;;;;;5.77;3.90;;;13.90;99.90;;;;;;5030999;28;20669;-74
2022/10/20 00:33:32;;;;;;;5.47;4.70;;;13.80;99.90;;;;;;5031165;28;20166;-74
2022/10/20 00:36:00;;;;;;;4.60;3.90;;;13.90;99.90;;;;;;5031055;28;20532;-74
2022/10/20 00:38:26;;;;;;;13.07;4.68;;;13.90;99.90;;;;;;5031059;28;20197;-74
2022/10/20 00:40:52;;;;;;;7.20;4.30;;;13.90;99.90;;;;;;5031035;28;20261;-74
2022/10/20 00:43:18;;;;;;;8.03;4.40;;;13.90;99.90;;;;;;5014280;28;20166;-74
2022/10/20 00:45:53;;;;;;;8.45;5.18;;;13.90;99.90;;;;;;5034728;28;20196;-74
2022/10/20 00:48:21;;;;;;;6.80;4.90;;;13.80;99.90;;;;;;5017039;28;20169;-74
2022/10/20 00:50:50;;;;;;;10.63;4.50;;;13.80;99.90;;;;;;5034643;28;20229;-74
2022/10/20 00:53:16;;;;;;;6.45;5.00;;;13.80;99.90;;;;;;5034287;28;20178;-74
2022/10/20 00:55:46;;;;;;;5.13;4.63;;;13.80;99.90;;;;;;5034543;28;20292;-74
2022/10/20 00:58:13;;;;;;;6.38;4.25;;;13.70;99.90;;;;;;5024944;28;20225;-74
2022/10/20 01:00:41;;;;;;;7.80;5.25;;;13.70;99.90;;;;;;5014519;28;20202;-74
2022/10/20 01:03:13;;;;;;;5.85;4.80;;;13.70;99.90;;;;;;5014258;28;20527;-74
2022/10/20 01:05:39;;;;;;;6.78;5.00;;;13.60;99.90;;;;;;5014505;28;20563;-74
2022/10/20 01:08:05;;;;;;;6.93;4.63;;;13.60;99.90;;;;;;5014478;28;20170;-74
2022/10/20 01:10:38;;;;;;;4.93;4.10;;;13.50;99.90;;;;;;5014466;28;20588;-75
2022/10/20 01:13:14;;;;;;;8.00;5.65;;;13.50;99.90;;;;;;5014266;28;20163;-74
2022/10/20 01:15:58;;;;;;;6.45;5.30;;;13.50;99.90;;;;;;4996915;28;20194;-74
2022/10/20 01:18:50;;;;;;;8.07;5.00;;;13.50;99.90;;;;;;5014417;28;20209;-75
2022/10/20 01:21:44;;;;;;;10.18;5.65;;;13.40;99.90;;;;;;5014437;28;20193;-75
2022/10/20 01:24:28;;;;;;;7.55;5.03;;;13.40;99.90;;;;;;5014098;28;20173;-75
2022/10/20 01:27:13;;;;;;;8.35;5.68;;;13.40;99.90;;;;;;5014322;28;20261;-75
2022/10/20 01:29:53;;;;;;;5.43;4.47;;;13.40;99.90;;;;;;5014097;28;20166;-74
2022/10/20 01:32:29;;;;;;;6.75;5.80;;;13.30;99.90;;;;;;5013783;28;20212;-74
2022/10/20 01:35:05;;;;;;;6.67;4.83;;;13.40;99.90;;;;;;5014061;28;20272;-74
2022/10/20 01:37:37;;;;;;;6.18;4.50;;;13.30;99.90;;;;;;5013929;28;21089;-75
2022/10/20 01:40:28;;;;;;;5.88;4.22;;;13.40;99.90;;;;;;5014039;28;20267;-75
2022/10/20 01:42:58;;;;;;;4.70;4.30;;;13.40;99.90;;;;;;5013654;28;20309;-74
2022/10/20 01:45:26;;;;;;;5.40;4.90;;;13.40;99.90;;;;;;4996233;28;20193;-74
2022/10/20 01:47:53;;;;;;;6.60;5.00;;;13.40;99.90;;;;;;5013772;28;20566;-74
2022/10/20 01:50:20;;;;;;;7.17;5.70;;;13.40;99.90;;;;;;4996292;28;20577;-74
2022/10/20 01:52:46;;;;;;;5.95;4.65;;;13.40;99.90;;;;;;5013374;28;20659;-74
2022/10/20 01:55:14;;;;;;;5.00;4.47;;;13.40;99.90;;;;;;4979643;28;20248;-75
2022/10/20 01:58:07;;;;;;;5.17;4.67;;;13.50;99.90;;;;;;5013580;28;20577;-75
2022/10/20 02:00:36;;;;;;;5.20;4.70;;;13.50;99.90;;;;;;5013428;28;20565;-75
2022/10/20 02:03:23;;;;;;;6.65;5.03;;;13.50;99.90;;;;;;4995584;28;20580;-75
2022/10/20 02:06:07;;;;;;;6.57;5.43;;;13.50;99.90;;;;;;5013456;28;20871;-75
2022/10/20 02:08:45;;;;;;;6.50;4.55;;;13.50;99.90;;;;;;5013652;28;20182;-74
2022/10/20 02:11:44;;;;;;;8.57;5.10;;;13.50;99.90;;;;;;5013339;28;20170;-75
2022/10/20 02:14:13;;;;;;;6.68;5.00;;;13.50;99.90;;;;;;5013294;28;20216;-75
2022/10/20 02:17:01;;;;;;;6.15;4.63;;;13.50;99.90;;;;;;4995681;28;20221;-74
2022/10/20 02:19:31;;;;;;;12.57;5.75;;;13.60;99.90;;;;;;5013285;28;20202;-75
2022/10/20 02:21:58;;;;;;;6.55;5.35;;;13.60;99.90;;;;;;5013313;28;20170;-75
2022/10/20 02:24:28;;;;;;;5.30;4.80;;;13.60;99.90;;;;;;5013373;28;20163;-75
2022/10/20 02:26:57;;;;;;;7.93;5.55;;;13.60;99.90;;;;;;5016321;28;20596;-75
2022/10/20 02:29:33;;;;;;;6.57;5.80;;;13.60;99.90;;;;;;5020729;28;20273;-74
2022/10/20 02:31:59;;;;;;;7.72;4.85;;;13.70;99.90;;;;;;5012568;28;20573;-75
2022/10/20 02:34:25;;;;;;;6.60;4.93;;;13.70;99.90;;;;;;5013009;28;20195;-75
2022/10/20 02:36:55;;;;;;;7.22;5.90;;;13.70;99.90;;;;;;5013082;28;20561;-75
2022/10/20 02:39:21;;;;;;;6.80;4.93;;;13.70;99.90;;;;;;5013054;28;20198;-74
2022/10/20 02:41:47;;;;;;;5.60;5.10;;;13.70;99.90;;;;;;5012883;28;20619;-75
2022/10/20 02:44:12;;;;;;;6.77;4.57;;;13.70;99.90;;;;;;5012776;28;20306;-74
2022/10/20 02:46:38;;;;;;;5.80;4.73;;;13.70;99.90;;;;;;4995033;28;20743;-74
2022/10/20 02:49:04;;;;;;;5.10;4.57;;;13.70;99.90;;;;;;4995157;28;20167;-74
2022/10/20 02:51:30;;;;;;;7.53;4.97;;;13.70;99.90;;;;;;5012698;28;20200;-75
2022/10/20 02:53:55;;;;;;;5.87;4.60;;;13.80;99.90;;;;;;4995123;28;20650;-75
2022/10/20 02:56:21;;;;;;;7.20;3.90;;;13.80;99.90;;;;;;5012624;28;20589;-75
2022/10/20 02:58:47;;;;;;;7.00;4.90;;;13.80;99.90;;;;;;5012901;28;20288;-75
2022/10/20 03:01:13;;;;;;;6.23;4.73;;;13.90;99.90;;;;;;5011334;28;20193;-75
2022/10/20 03:03:39;;;;;;;6.63;4.13;;;13.80;99.90;;;;;;4994694;28;20982;-75
2022/10/20 03:06:14;;;;;;;7.20;5.90;;;13.80;99.90;;;;;;4993858;28;20190;-75
2022/10/20 03:08:41;;;;;;;6.60;4.53;;;13.80;99.90;;;;;;5012501;28;20425;-75
2022/10/20 03:11:07;;;;;;;9.83;5.10;;;13.80;99.90;;;;;;5012418;28;20581;-75
2022/10/20 03:13:33;;;;;;;4.55;3.90;;;13.80;99.90;;;;;;5012212;28;20639;-75
2022/10/20 03:16:00;;;;;;;6.77;4.73;;;13.90;99.90;;;;;;5012238;28;20182;-75
2022/10/20 03:18:26;;;;;;;5.50;4.23;;;13.80;99.90;;;;;;5012002;28;20201;-75
2022/10/20 03:20:53;;;;;;;7.30;4.80;;;13.80;99.90;;;;;;5012238;28;20554;-75
2022/10/20 03:23:19;;;;;;;8.40;4.70;;;13.80;99.90;;;;;;4994206;28;20627;-75
2022/10/20 03:25:45;;;;;;;5.80;4.50;;;13.80;99.90;;;;;;5011886;28;20637;-74
2022/10/20 03:28:10;;;;;;;5.70;4.63;;;13.80;99.90;;;;;;5012133;28;21116;-75
2022/10/20 03:30:36;;;;;;;6.63;4.30;;;13.90;99.90;;;;;;4994443;28;20634;-75
2022/10/20 03:33:02;;;;;;;4.83;4.07;;;13.90;99.90;;;;;;4993902;28;20182;-75
2022/10/20 03:35:28;;;;;;;5.23;4.40;;;14.00;99.90;;;;;;5011841;28;20198;-75
2022/10/20 03:37:54;;;;;;;5.50;4.53;;;13.90;99.90;;;;;;5011934;28;20632;-75
2022/10/20 03:40:19;;;;;;;5.73;4.53;;;13.90;99.90;;;;;;5011825;28;20534;-75
2022/10/20 03:42:45;;;;;;;8.80;4.27;;;13.90;99.90;;;;;;5011444;28;20166;-75
2022/10/20 03:45:11;;;;;;;6.87;4.03;;;13.90;99.90;;;;;;4994194;28;20194;-75
2022/10/20 03:47:36;;;;;;;6.00;4.20;;;13.90;99.90;;;;;;4994149;28;20170;-75
2022/10/20 03:50:03;;;;;;;6.90;4.70;;;13.90;99.90;;;;;;5011854;28;20177;-75
2022/10/20 03:52:29;;;;;;;2.97;2.67;;;13.90;99.90;;;;;;5011365;28;20170;-75
2022/10/20 03:54:55;;;;;;;5.07;3.80;;;14.00;99.90;;;;;;5011790;28;21285;-76
2022/10/20 03:57:20;;;;;;;4.87;4.40;;;14.00;99.90;;;;;;5011775;28;20190;-75
2022/10/20 03:59:46;;;;;;;5.00;3.93;;;13.90;99.90;;;;;;4993842;28;20258;-75
2022/10/20 04:02:34;;;;;;;7.97;4.07;;;14.00;99.90;;;;;;5011336;28;20660;-75
2022/10/20 04:05:00;;;;;;;4.67;3.80;;;14.00;99.90;;;;;;5011812;28;20214;-76
2022/10/20 04:07:26;;;;;;;5.33;4.00;;;14.00;99.90;;;;;;5011615;28;20576;-75
2022/10/20 04:09:52;;;;;;;4.70;4.17;;;14.00;99.90;;;;;;5011966;28;20569;-75
2022/10/20 04:12:18;;;;;;;6.50;4.13;;;14.00;99.90;;;;;;5011346;28;20167;-75
2022/10/20 04:14:44;;;;;;;5.53;3.53;;;14.00;99.90;;;;;;4978124;28;20206;-76
2022/10/20 04:17:09;;;;;;;7.63;4.07;;;13.90;99.90;;;;;;5012627;28;20165;-76
2022/10/20 04:19:35;;;;;;;5.70;4.57;;;14.00;99.90;;;;;;5015522;28;20198;-75
2022/10/20 04:22:01;;;;;;;5.43;3.70;;;14.00;99.90;;;;;;5015859;28;20166;-82
2022/10/20 04:24:27;;;;;;;4.63;4.10;;;13.90;99.90;;;;;;4999838;28;20262;-81
2022/10/20 04:26:52;;;;;;;4.40;3.20;;;13.90;99.90;;;;;;5015798;28;20233;-81
2022/10/20 04:29:18;;;;;;;4.33;3.70;;;13.90;99.90;;;;;;5015133;28;20181;-81
2022/10/20 04:31:44;;;;;;;6.60;4.27;;;13.90;99.90;;;;;;5013497;28;20166;-81
2022/10/20 04:34:09;;;;;;;7.77;4.10;;;13.90;99.90;;;;;;5014750;28;20204;-81
2022/10/20 04:36:35;;;;;;;6.70;4.30;;;13.90;99.90;;;;;;5014904;28;20186;-81
2022/10/20 04:39:03;;;;;;;4.67;4.20;;;13.90;99.90;;;;;;5020122;28;20198;-81
2022/10/20 04:41:29;;;;;;;3.90;3.50;;;13.90;99.90;;;;;;5015495;28;20630;-81
2022/10/20 04:43:55;;;;;;;10.03;5.37;;;13.90;99.90;;;;;;5015406;28;20576;-81
2022/10/20 04:46:21;;;;;;;7.27;5.10;;;13.90;99.90;;;;;;5015865;28;20186;-81
2022/10/20 04:48:46;;;;;;;7.10;4.00;;;13.90;99.90;;;;;;5015686;28;20635;-81
2022/10/20 04:51:14;;;;;;;4.77;4.03;;;13.90;99.90;;;;;;5015610;28;20597;-82
2022/10/20 04:53:40;;;;;;;5.43;3.83;;;14.00;99.90;;;;;;5015758;28;20166;-81
2022/10/20 04:56:09;;;;;;;9.23;6.30;;;14.00;99.90;;;;;;5015625;28;21011;-82
2022/10/20 04:58:35;;;;;;;5.23;4.03;;;14.00;99.90;;;;;;5014986;28;20617;-80
2022/10/20 05:01:06;;;;;;;5.90;3.90;;;14.10;99.90;;;;;;5015397;28;20565;-82
2022/10/20 05:03:32;;;;;;;3.30;2.90;;;14.10;99.90;;;;;;5015315;28;20193;-77
2022/10/20 05:06:14;;;;;;;4.93;3.40;;;14.00;99.90;;;;;;4998278;28;20675;-76
2022/10/20 05:08:41;;;;;;;4.40;4.00;;;14.10;99.90;;;;;;5021508;28;20580;-76
2022/10/20 05:11:07;;;;;;;6.87;3.70;;;14.10;99.90;;;;;;4982479;28;21033;-76
2022/10/20 05:13:33;;;;;;;10.23;4.20;;;14.10;99.90;;;;;;4997389;28;20695;-75
2022/10/20 05:15:59;;;;;;;4.67;4.10;;;14.10;99.90;;;;;;5015003;28;20724;-76
2022/10/20 05:18:25;;;;;;;7.53;4.27;;;14.10;99.90;;;;;;5014802;28;20640;-76
2022/10/20 05:20:51;;;;;;;4.70;3.80;;;14.10;99.90;;;;;;5014829;28;20166;-75
2022/10/20 05:23:16;;;;;;;4.20;3.80;;;14.00;99.90;;;;;;5015326;28;20537;-76
2022/10/20 05:25:42;;;;;;;3.77;3.43;;;14.10;99.90;;;;;;5015519;28;20210;-76
2022/10/20 05:28:08;;;;;;;7.93;4.27;;;14.00;99.90;;;;;;4997094;28;20175;-76
2022/10/20 05:30:35;;;;;;;5.03;4.00;;;14.00;99.90;;;;;;5015060;28;20506;-75
2022/10/20 05:33:01;;;;;;;6.63;4.93;;;14.00;99.90;;;;;;5014462;28;20175;-76
2022/10/20 05:35:27;;;;;;;4.13;3.80;;;14.00;99.90;;;;;;5014027;28;20605;-73
2022/10/20 05:37:54;;;;;;;5.33;3.77;;;14.00;99.90;;;;;;5014045;28;21081;-74
2022/10/20 05:40:20;;;;;;;4.77;3.80;;;14.00;99.90;;;;;;5014046;28;20570;-73
2022/10/20 05:42:46;;;;;;;5.20;3.93;;;14.00;99.90;;;;;;4996188;28;20952;-74
2022/10/20 05:45:11;;;;;;;9.60;4.50;;;14.00;99.90;;;;;;4980090;28;20610;-73
2022/10/20 05:47:37;;;;;;;6.43;4.60;;;14.00;99.90;;;;;;5014176;28;20179;-75
2022/10/20 05:50:04;;;;;;;5.20;4.10;;;14.00;99.90;;;;;;5013672;28;20565;-74
2022/10/20 05:52:29;;;;;;;5.53;4.37;;;14.00;99.90;;;;;;4996051;28;20254;-75
2022/10/20 05:54:56;;;;;;;5.70;4.50;;;14.00;99.90;;;;;;5013959;28;20696;-75
2022/10/20 05:57:22;;;;;;;5.53;3.77;;;14.00;99.90;;;;;;4980104;28;20680;-75
2022/10/20 05:59:48;;;;;;;6.73;4.27;;;14.00;99.90;;;;;;4996086;28;20556;-75
2022/10/20 06:02:13;;;;;;;6.40;4.37;;;14.00;99.90;;;;;;4995498;28;20601;-75
2022/10/20 06:04:39;;;;;;;7.20;4.30;;;14.10;99.90;;;;;;5013436;28;20170;-75
2022/10/20 06:07:05;;;;;;;9.30;4.40;;;14.00;99.90;;;;;;5021870;28;20185;-74
2022/10/20 06:09:31;;;;;;;5.20;3.70;;;14.10;99.90;;;;;;5013350;28;20225;-74
2022/10/20 06:11:58;;;;;;;4.90;4.40;;;14.00;99.90;;;;;;5011832;28;20589;-73
2022/10/20 06:14:24;;;;;;;7.47;4.90;;;14.00;99.90;;;;;;5013600;28;20624;-74
2022/10/20 06:16:51;;;;;;;5.90;4.07;;;14.00;99.90;;;;;;5013266;28;20577;-73
2022/10/20 06:19:17;;;;;;;10.70;4.20;;;14.10;99.90;;;;;;5012425;28;20648;-73
2022/10/20 06:21:43;;;;;;;5.10;4.60;;;14.10;99.90;;;;;;4985687;28;20616;-74
2022/10/20 06:24:10;;;;;;;8.17;4.60;;;14.10;99.90;;;;;;5007513;28;20585;-73
2022/10/20 06:26:38;;;;;;;5.47;4.97;;;14.10;99.90;;;;;;5011947;28;20240;-73
2022/10/20 06:29:10;;;;;;;7.83;4.93;;;14.00;99.90;;;;;;5012541;28;20600;-75
2022/10/20 06:31:38;;;;;;;9.77;5.10;;;14.00;99.90;;;;;;5012855;28;20581;-73
2022/10/20 06:34:12;;;;;;;7.40;5.43;;;14.10;99.90;;;;;;4994651;28;20555;-73
2022/10/20 06:36:40;;;;;;;4.73;4.20;;;14.10;99.90;;;;;;5012741;28;20652;-74
2022/10/20 06:39:09;;;;;;;7.82;4.20;;;14.10;99.90;;;;;;4995270;28;20621;-74
2022/10/20 06:41:35;;;;;;;5.40;4.90;;;14.10;99.90;;;;;;5013030;28;20193;-74
2022/10/20 06:44:01;;;;;;;5.97;4.47;;;14.10;99.90;;;;;;5012633;28;20566;-74
2022/10/20 06:46:30;;;;;;;4.50;3.80;;;14.10;99.90;;;;;;5012562;28;20214;-73
2022/10/20 06:48:59;;;;;;;8.70;4.97;;;14.10;99.90;;;;;;5012847;28;20572;-73
2022/10/20 06:51:26;;;;;;;5.93;4.90;;;14.10;99.90;;;;;;5012465;28;20565;-73
2022/10/20 06:53:53;;;;;;;9.00;6.43;;;14.20;99.90;;;;;;5012337;28;20575;-74
2022/10/20 06:56:21;;;;;;;6.57;5.10;;;14.30;99.90;;;;;;4994849;28;20703;-74
2022/10/20 06:58:49;;;;;;;7.43;4.20;;;14.30;99.90;;;;;;4994847;28;20210;-75
2022/10/20 07:01:22;;;;;;;7.70;5.05;;;14.30;99.90;;;;;;5012357;28;20577;-74
2022/10/20 07:03:49;;;;;;;5.23;4.60;;;14.20;99.90;;;;;;5012065;28;20170;-74
2022/10/20 07:06:18;;;;;;;5.43;4.40;;;14.30;99.90;;;;;;4994872;28;20597;-74
2022/10/20 07:08:44;;;;;;;5.40;4.57;;;14.30;99.90;;;;;;5014918;28;20577;-74
2022/10/20 07:11:17;;;;;;;5.00;4.60;;;14.30;99.90;;;;;;5007112;28;20597;-74
2022/10/20 07:13:43;;;;;;;5.97;4.80;;;14.30;99.90;;;;;;4993434;28;20621;-74
2022/10/20 07:16:15;;;;;;;6.53;4.63;;;14.40;99.90;;;;;;5011682;28;20694;-74
2022/10/20 07:18:41;;;;;;;9.03;5.07;;;14.40;99.90;;;;;;4994687;28;20636;-74
2022/10/20 07:21:10;;;;;;;5.40;4.83;;;14.40;99.90;;;;;;5012198;28;20623;-74
2022/10/20 07:23:36;;;;;;;6.17;5.50;;;14.40;99.90;;;;;;5012140;28;20565;-74
2022/10/20 07:26:04;;;;;;;6.00;4.67;;;14.40;99.90;;;;;;5011891;28;20613;-74
2022/10/20 07:28:31;;;;;;;5.60;4.80;;;14.40;99.90;;;;;;5012694;28;20611;-75
2022/10/20 07:31:00;;;;;;;6.13;5.27;;;14.50;99.90;;;;;;5011701;28;21044;-74
2022/10/20 07:33:26;;;;;;;8.77;5.37;;;14.50;99.90;;;;;;5006214;28;20969;-74
2022/10/20 07:35:52;;;;;;;5.23;4.73;;;14.50;99.90;;;;;;5012126;28;20644;-75
2022/10/20 07:38:18;;;;;;;9.13;7.23;;;14.50;99.90;;;;;;5011075;28;20202;-74
2022/10/20 07:40:44;;;;;;;8.00;4.50;;;14.50;99.90;;;;;;5002351;28;20643;-74
2022/10/20 07:43:13;;;;;;;5.90;5.17;;;14.60;99.90;;;;;;5012718;28;20170;-76
2022/10/20 07:45:38;;;;;;;7.70;4.90;;;14.60;99.90;;;;;;4978996;28;20220;-75
2022/10/20 07:48:05;;;;;;;8.83;5.37;;;14.70;99.90;;;;;;5012953;28;20636;-75
2022/10/20 07:50:32;;;;;;;5.80;4.97;;;14.70;99.90;;;;;;5013465;28;20635;-75
2022/10/20 07:52:57;;;;;;;5.90;5.40;;;14.80;99.90;;;;;;5012150;28;20646;-75
2022/10/20 07:55:23;;;;;;;6.83;6.13;;;14.80;99.90;;;;;;5011596;28;20621;-75
2022/10/20 07:57:49;;;;;;;9.57;5.67;;;14.90;99.90;;;;;;5011699;28;20539;-75
2022/10/20 08:00:15;;;;;;;7.60;5.17;;;15.00;99.90;;;;;;5011730;28;20166;-74
2022/10/20 08:02:41;;;;;;;8.60;5.90;;;15.00;99.90;;;;;;5010915;28;20248;-73
2022/10/20 08:05:07;;;;;;;5.90;5.30;;;15.10;99.90;;;;;;5011423;28;20202;-73
2022/10/20 08:07:33;;;;;;;9.10;5.67;;;15.20;99.90;;;;;;5011887;28;20225;-73
2022/10/20 08:09:59;;;;;;;6.57;5.70;;;15.20;99.90;;;;;;5011668;28;20593;-74
2022/10/20 08:12:25;;;;;;;14.00;6.10;;;15.30;99.90;;;;;;5011271;28;20615;-73
2022/10/20 08:14:51;;;;;;;6.00;5.40;;;15.30;99.90;;;;;;5011628;28;20190;-73
2022/10/20 08:17:17;;;;;;;5.87;5.27;;;15.30;99.90;;;;;;4994476;28;20595;-75
2022/10/20 08:19:43;;;;;;;7.43;5.80;;;15.30;99.90;;;;;;5012128;28;20206;-75
2022/10/20 08:22:09;;;;;;;5.87;4.60;;;15.30;99.90;;;;;;5016639;28;21200;-75
2022/10/20 08:24:35;;;;;;;6.13;4.77;;;15.30;99.90;;;;;;4997318;28;20280;-75
2022/10/20 08:27:01;;;;;;;7.77;5.70;;;15.40;99.90;;;;;;5005732;28;20587;-73
2022/10/20 08:29:27;;;;;;;8.63;7.63;;;15.30;99.90;;;;;;5031632;28;20722;-75
2022/10/20 08:31:53;;;;;;;8.27;5.50;;;15.40;99.90;;;;;;5014068;28;20579;-76
2022/10/20 08:34:18;;;;;;;8.40;5.53;;;15.30;99.90;;;;;;5031318;28;20572;-74
2022/10/20 08:36:44;;;;;;;7.07;5.50;;;15.30;99.90;;;;;;5031239;28;20204;-75
2022/10/20 08:39:10;;;;;;;5.60;4.90;;;15.30;99.90;;;;;;4989502;28;20202;-75
2022/10/20 08:41:41;;;;;;;6.07;4.70;;;15.40;99.90;;;;;;5011043;28;20567;-75
2022/10/20 08:44:07;;;;;;;6.63;5.60;;;15.50;99.90;;;;;;5003557;28;20249;-73
2022/10/20 08:46:38;;;;;;;6.13;4.60;;;15.40;99.90;;;;;;5011382;28;20597;-73
2022/10/20 08:49:14;;;;;;;5.43;4.80;;;15.50;99.90;;;;;;5010269;28;20573;-73
2022/10/20 08:51:41;;;;;;;6.83;5.13;;;15.50;99.90;;;;;;5009291;28;20997;-73
2022/10/20 08:54:12;;;;;;;5.97;5.30;;;15.70;99.90;;;;;;5008463;28;20585;-73
2022/10/20 08:56:38;;;;;;;7.60;5.50;;;15.60;99.90;;;;;;5011086;28;20647;-74
2022/10/20 08:59:15;;;;;;;7.30;4.50;;;15.50;99.90;;;;;;5010719;28;20636;-74
2022/10/20 09:01:41;;;;;;;6.60;4.60;;;15.50;99.90;;;;;;5004314;28;20599;-74
2022/10/20 09:04:18;;;;;;;8.43;4.63;;;15.50;99.90;;;;;;5011883;28;20672;-73
2022/10/20 09:06:48;;;;;;;7.40;5.67;;;15.40;99.90;;;;;;5013400;28;20186;-76
2022/10/20 09:09:16;;;;;;;7.50;4.50;;;15.40;99.90;;;;;;5014587;28;20561;-74
2022/10/20 09:11:43;;;;;;;7.37;4.23;;;15.40;99.90;;;;;;5013223;28;20583;-74
2022/10/20 09:14:13;;;;;;;7.80;5.70;;;15.50;99.90;;;;;;5014414;28;20664;-74
2022/10/20 09:16:40;;;;;;;6.90;6.00;;;15.50;99.90;;;;;;5014497;28;20616;-74
2022/10/20 09:19:21;;;;;;;7.53;4.60;;;15.50;99.90;;;;;;5009120;28;20633;-73
2022/10/20 09:21:52;;;;;;;6.60;4.47;;;15.50;99.90;;;;;;5009110;28;20597;-74
2022/10/20 09:24:20;;;;;;;6.63;5.37;;;15.50;99.90;;;;;;5014077;28;20968;-74
2022/10/20 09:26:49;;;;;;;6.93;5.83;;;15.60;99.90;;;;;;5014068;28;20719;-74
2022/10/20 09:29:16;;;;;;;7.80;5.20;;;15.60;99.90;;;;;;5014339;28;20624;-74
2022/10/20 09:31:54;;;;;;;8.00;6.17;;;15.60;99.90;;;;;;5014110;28;20569;-74
2022/10/20 09:34:20;;;;;;;7.70;4.63;;;15.70;99.90;;;;;;5013929;28;20999;-74
2022/10/20 09:36:49;;;;;;;5.00;4.50;;;15.70;99.90;;;;;;5014562;28;20596;-75
2022/10/20 09:39:26;;;;;;;5.50;4.93;;;15.70;99.90;;;;;;5014141;28;20630;-73
2022/10/20 09:42:10;;;;;;;7.43;5.73;;;15.70;99.90;;;;;;5013876;28;20569;-73
2022/10/20 09:44:50;;;;;;;5.10;4.60;;;15.70;99.90;;;;;;5012854;28;20574;-74
2022/10/20 09:47:16;;;;;;;6.80;5.20;;;15.70;99.90;;;;;;5014115;28;20568;-74
2022/10/20 09:49:44;;;;;;;6.77;6.07;;;15.80;99.90;;;;;;5013962;28;20620;-74
2022/10/20 09:52:22;;;;;;;5.53;5.03;;;15.90;99.90;;;;;;5013493;28;20577;-74
2022/10/20 09:54:56;;;;;;;6.50;5.50;;;15.80;99.90;;;;;;5013640;28;20643;-74
2022/10/20 09:57:22;;;;;;;6.70;6.03;;;15.90;99.90;;;;;;5013895;28;20600;-74
2022/10/20 09:59:51;;;;;;;5.23;4.73;;;15.80;99.90;;;;;;5012400;28;20624;-73
2022/10/20 10:02:19;;;;;;;7.27;5.30;;;15.80;99.90;;;;;;5011940;28;20672;-74
2022/10/20 10:04:48;;;;;;;7.97;6.67;;;15.80;99.90;;;;;;4979774;28;20609;-74
2022/10/20 10:07:25;;;;;;;12.10;5.80;;;15.70;99.90;;;;;;4996241;28;20569;-75
2022/10/20 10:10:00;;;;;;;9.27;7.13;;;15.60;99.90;;;;;;5012388;28;20565;-75
2022/10/20 10:12:29;;;;;;;11.83;6.30;;;15.40;99.90;;;;;;5013831;28;20581;-74
2022/10/20 10:14:57;;;;;;;8.57;7.40;;;15.30;99.90;;;;;;5011974;28;20601;-75
2022/10/20 10:17:36;;;;;;;14.57;9.20;;;15.20;99.90;;;;;;5011961;28;20577;-75
2022/10/20 10:20:06;;;;;;;11.40;8.80;;;15.10;99.90;;;;;;5013253;28;21202;-74
2022/10/20 10:22:33;;;;;;;8.00;6.93;;;15.10;99.90;;;;;;5012990;28;20565;-75
2022/10/20 10:25:00;;;;;;;8.47;7.63;;;15.00;99.90;;;;;;5011774;28;20636;-75
2022/10/20 10:27:30;;;;;;;8.60;7.50;;;15.00;99.90;;;;;;5028479;28;21016;-76
2022/10/20 10:30:16;;;;;;;9.60;8.60;;;15.00;99.90;;;;;;5013174;28;20576;-76
2022/10/20 10:32:46;;;;;;;9.50;8.20;;;14.90;99.90;;;;;;5011361;28;21139;-76
2022/10/20 10:35:26;;;;;;;8.30;7.03;;;14.90;99.90;;;;;;5013005;28;20649;-76
2022/10/20 10:37:52;;;;;;;9.83;8.10;;;14.90;99.90;;;;;;5012130;28;20589;-75
2022/10/20 10:40:23;;;;;;;8.80;8.00;;;14.80;99.90;;;;;;4995441;28;20578;-74
2022/10/20 10:43:07;;;;;;;10.33;7.40;;;14.70;99.90;;;;;;5012481;28;20659;-74
2022/10/20 10:46:04;;;;;;;13.37;7.30;;;14.70;99.90;;;;;;5012764;28;20601;-75
2022/10/20 10:48:30;;;;;;;9.10;7.90;;;14.60;99.90;;;;;;5012069;28;20592;-74
2022/10/20 10:51:05;;;;;;;12.07;8.00;;;14.60;99.90;;;;;;5012853;28;20569;-74
2022/10/20 10:53:50;;;;;;;15.67;9.43;;;14.50;99.90;;;;;;5012292;28;20166;-74
2022/10/20 10:56:19;;;;;;;8.70;7.53;;;14.50;99.90;;;;;;5012508;28;20621;-75
2022/10/20 10:59:01;;;;;;;9.60;8.07;;;14.50;99.90;;;;;;5012411;28;20621;-74
2022/10/20 11:02:03;;;;;;;9.63;8.50;;;14.50;99.90;;;;;;5011161;28;20576;-74
2022/10/20 11:04:51;;;;;;;10.13;9.13;;;14.50;99.90;;;;;;5012347;28;20932;-74
2022/10/20 11:07:44;;;;;;;12.13;9.40;;;14.40;99.90;;;;;;5012344;28;20562;-74
2022/10/20 11:10:28;;;;;;;11.43;10.27;;;14.30;99.90;;;;;;5011122;28;20675;-74
2022/10/20 11:13:18;;;;;;;12.10;9.60;;;14.30;99.90;;;;;;5011883;28;20573;-74
2022/10/20 11:16:09;;;;;;;17.33;10.30;;;14.20;99.90;;;;;;5012171;28;20609;-74
2022/10/20 11:19:09;;;;;;;13.60;11.70;;;14.20;99.90;;;;;;5012039;28;20632;-75
2022/10/20 11:21:57;;;;;;;14.33;11.07;;;14.10;99.90;;;;;;5012171;28;20647;-75
2022/10/20 11:24:37;;;;;;;12.48;11.15;;;14.00;99.90;;;;;;5011768;28;20684;-75
2022/10/20 11:27:11;;;;;;;13.77;11.10;;;14.00;99.90;;;;;;5012183;28;20185;-75
2022/10/20 11:29:45;;;;;;;13.07;11.77;;;14.00;99.90;;;;;;5012059;28;20640;-75
2022/10/20 11:32:13;;;;;;;12.80;10.23;;;14.00;99.90;;;;;;5011703;28;20581;-75
2022/10/20 11:35:03;;;;;;;11.70;10.50;;;14.00;99.90;;;;;;5011928;28;20585;-75
2022/10/20 11:37:40;;;;;;;10.87;8.77;;;14.00;99.90;;;;;;5011878;28;20675;-74
2022/10/20 11:40:09;;;;;;;13.97;12.50;;;14.00;99.90;;;;;;5011844;28;20627;-74
2022/10/20 11:42:59;;;;;;;16.30;11.10;;;14.00;99.90;;;;;;5011534;28;20617;-74
2022/10/20 11:45:31;;;;;;;13.23;11.25;;;14.00;99.90;;;;;;5011681;28;20936;-74
2022/10/20 11:48:09;;;;;;;11.27;10.00;;;14.00;99.90;;;;;;5012007;28;20165;-74
2022/10/20 11:50:35;;;;;;;17.00;11.23;;;14.00;99.90;;;;;;5011699;28;20569;-73
2022/10/20 11:53:13;;;;;;;13.10;11.80;;;14.00;99.90;;;;;;5011499;28;20177;-74
2022/10/20 11:55:59;;;;;;;14.33;12.83;;;14.00;99.90;;;;;;5011662;28;20596;-74
2022/10/20 11:58:54;;;;;;;12.27;11.10;;;14.00;99.90;;;;;;5012037;28;20659;-74
2022/10/20 12:02:11;;;;;;;12.80;11.60;;;14.10;99.90;;;;;;4994394;28;20608;-74
2022/10/20 12:04:55;;;;;;;10.23;9.23;;;14.10;99.90;;;;;;4913847;29;20609;-74
2022/10/20 12:07:35;;;;;;;11.70;10.50;;;14.20;99.90;;;;;;4914365;29;21169;-74
2022/10/20 12:10:33;;;;;;;13.70;10.67;;;14.20;99.90;;;;;;4986954;28;20584;-74
2022/10/20 12:13:19;;;;;;;12.97;10.30;;;14.20;99.90;;;;;;5015482;28;20562;-74
2022/10/20 12:15:51;;;;;;;11.27;10.17;;;14.20;99.90;;;;;;5014080;28;20659;-73
2022/10/20 12:18:33;;;;;;;11.13;9.80;;;14.20;99.90;;;;;;5011607;28;20710;-74
2022/10/20 12:21:05;;;;;;;11.80;8.87;;;14.20;99.90;;;;;;5011576;28;20684;-74
2022/10/20 12:23:47;;;;;;;12.70;10.37;;;14.20;99.90;;;;;;5007571;28;20616;-74
2022/10/20 12:26:28;;;;;;;9.97;8.97;;;14.30;99.90;;;;;;5010057;28;20698;-74
2022/10/20 12:28:58;;;;;;;14.45;11.40;;;14.30;99.90;;;;;;5011367;28;20586;-74
2022/10/20 12:31:44;;;;;;;11.23;9.00;;;14.30;99.90;;;;;;5011128;28;20182;-74
2022/10/20 12:34:22;;;;;;;10.63;9.57;;;14.40;99.90;;;;;;5004983;28;20585;-74
2022/10/20 12:36:48;;;;;;;12.90;11.20;;;14.40;99.90;;;;;;5011265;28;20597;-74
2022/10/20 12:39:19;;;;;;;12.03;10.80;;;14.40;99.90;;;;;;5013933;28;21199;-73
2022/10/20 12:41:56;;;;;;;14.00;12.60;;;14.40;99.90;;;;;;4997201;28;20636;-74
2022/10/20 12:44:23;;;;;;;14.27;12.87;;;14.40;99.90;;;;;;5015258;28;20562;-74
2022/10/20 12:47:02;;;;;;;11.97;10.77;;;14.50;99.90;;;;;;5015002;28;20592;-74
2022/10/20 12:49:34;;;;;;;14.07;12.50;;;14.50;99.90;;;;;;4997386;28;20592;-75
2022/10/20 12:52:02;;;;;;;17.40;13.23;;;14.50;99.90;;;;;;5014518;28;20576;-74
2022/10/20 12:54:38;;;;;;;12.33;11.10;;;14.50;99.90;;;;;;5014675;28;20921;-74
2022/10/20 12:57:29;;;;;;;16.90;12.20;;;14.60;99.90;;;;;;5014901;28;20573;-74
2022/10/20 12:59:55;;;;;;;13.17;11.87;;;14.60;99.90;;;;;;5014311;28;20763;-74
2022/10/20 13:02:21;;;;;;;12.57;11.27;;;14.70;99.90;;;;;;5014400;28;20944;-74